sensor_id;sensor_type;location;lat;lon;timestamp;temperature;humidity
23717;DHT22;22094;52.130;5.598;2024-01-25T00:01:14;7.40;1.00
23717;DHT22;22094;52.130;5.598;2024-01-25T00:03:40;7.30;1.00
23717;DHT22;22094;52.130;5.598;2024-01-25T00:06:06;7.20;1.00
23717;DHT22;22094;52.130;5.598;2024-01-25T00:08:32;7.40;1.00
23717;DHT22;22094;52.130;5.598;2024-01-25T00:10:57;7.10;1.00
23717;DHT22;22094;52.130;5.598;2024-01-25T00:13:23;7.00;99.90
23717;DHT22;22094;52.130;5.598;2024-01-25T00:15:49;7.00;99.90
23717;DHT22;22094;52.130;5.598;2024-01-25T00:18:14;6.90;99.90
23717;DHT22;22094;52.130;5.598;2024-01-25T00:20:40;6.90;1.00
23717;DHT22;22094;52.130;5.598;2024-01-25T00:23:06;7.30;1.00
23717;DHT22;22094;52.130;5.598;2024-01-25T00:25:32;6.90;1.00
23717;DHT22;22094;52.130;5.598;2024-01-25T00:27:57;6.90;1.00
23717;DHT22;22094;52.130;5.598;2024-01-25T00:30:23;6.80;1.00
23717;DHT22;22094;52.130;5.598;2024-01-25T00:32:48;6.70;1.00
23717;DHT22;22094;52.130;5.598;2024-01-25T00:35:15;6.70;1.00
23717;DHT22;22094;52.130;5.598;2024-01-25T00:37:41;6.60;99.90
23717;DHT22;22094;52.130;5.598;2024-01-25T00:40:07;6.60;99.90
23717;DHT22;22094;52.130;5.598;2024-01-25T00:42:41;6.50;99.90
23717;DHT22;22094;52.130;5.598;2024-01-25T00:45:07;6.50;1.00
23717;DHT22;22094;52.130;5.598;2024-01-25T00:47:33;6.40;1.00
23717;DHT22;22094;52.130;5.598;2024-01-25T00:49:59;6.40;1.00
23717;DHT22;22094;52.130;5.598;2024-01-25T00:52:25;6.20;99.90
23717;DHT22;22094;52.130;5.598;2024-01-25T00:54:51;6.30;1.00
23717;DHT22;22094;52.130;5.598;2024-01-25T00:57:16;6.20;1.00
23717;DHT22;22094;52.130;5.598;2024-01-25T00:59:42;6.30;99.90
23717;DHT22;22094;52.130;5.598;2024-01-25T01:02:11;6.30;1.00
23717;DHT22;22094;52.130;5.598;2024-01-25T01:04:37;6.30;1.00
23717;DHT22;22094;52.130;5.598;2024-01-25T01:07:03;6.20;99.90
23717;DHT22;22094;52.130;5.598;2024-01-25T01:09:29;6.20;1.00
23717;DHT22;22094;52.130;5.598;2024-01-25T01:11:55;6.40;1.00
23717;DHT22;22094;52.130;5.598;2024-01-25T01:14:20;7.20;1.00
23717;DHT22;22094;52.130;5.598;2024-01-25T01:16:46;6.20;1.00
23717;DHT22;22094;52.130;5.598;2024-01-25T01:19:11;6.70;7.60
23717;DHT22;22094;52.130;5.598;2024-01-25T01:21:37;6.20;99.90
23717;DHT22;22094;52.130;5.598;2024-01-25T01:24:04;6.10;99.90
23717;DHT22;22094;52.130;5.598;2024-01-25T01:26:29;6.10;99.90
23717;DHT22;22094;52.130;5.598;2024-01-25T01:28:55;6.00;99.90
23717;DHT22;22094;52.130;5.598;2024-01-25T01:31:21;6.00;99.90
23717;DHT22;22094;52.130;5.598;2024-01-25T01:33:47;6.00;99.90
23717;DHT22;22094;52.130;5.598;2024-01-25T01:36:13;6.00;1.00
23717;DHT22;22094;52.130;5.598;2024-01-25T01:38:38;5.90;1.00
23717;DHT22;22094;52.130;5.598;2024-01-25T01:41:04;6.00;99.90
23717;DHT22;22094;52.130;5.598;2024-01-25T01:43:29;6.00;1.00
23717;DHT22;22094;52.130;5.598;2024-01-25T01:46:00;6.00;1.00
23717;DHT22;22094;52.130;5.598;2024-01-25T01:48:28;6.00;1.00
23717;DHT22;22094;52.130;5.598;2024-01-25T01:50:54;6.00;1.00
23717;DHT22;22094;52.130;5.598;2024-01-25T01:53:19;6.00;1.00
23717;DHT22;22094;52.130;5.598;2024-01-25T01:55:45;5.90;99.90
23717;DHT22;22094;52.130;5.598;2024-01-25T01:58:10;5.90;99.90
23717;DHT22;22094;52.130;5.598;2024-01-25T02:00:37;6.50;1.00
23717;DHT22;22094;52.130;5.598;2024-01-25T02:03:04;5.70;99.90
23717;DHT22;22094;52.130;5.598;2024-01-25T02:05:29;5.70;1.00
23717;DHT22;22094;52.130;5.598;2024-01-25T02:07:55;5.60;1.00
23717;DHT22;22094;52.130;5.598;2024-01-25T02:10:20;5.60;99.90
23717;DHT22;22094;52.130;5.598;2024-01-25T02:12:46;5.50;99.90
23717;DHT22;22094;52.130;5.598;2024-01-25T02:15:11;5.40;99.90
23717;DHT22;22094;52.130;5.598;2024-01-25T02:17:37;5.20;1.00
23717;DHT22;22094;52.130;5.598;2024-01-25T02:20:03;5.20;1.00
23717;DHT22;22094;52.130;5.598;2024-01-25T02:22:30;5.10;99.90
23717;DHT22;22094;52.130;5.598;2024-01-25T02:24:55;5.00;99.90
23717;DHT22;22094;52.130;5.598;2024-01-25T02:27:21;5.00;1.00
23717;DHT22;22094;52.130;5.598;2024-01-25T02:29:46;4.90;1.00
23717;DHT22;22094;52.130;5.598;2024-01-25T02:32:12;4.90;1.00
23717;DHT22;22094;52.130;5.598;2024-01-25T02:34:37;4.80;1.00
23717;DHT22;22094;52.130;5.598;2024-01-25T02:37:03;4.70;1.00
23717;DHT22;22094;52.130;5.598;2024-01-25T02:39:29;4.60;1.00
23717;DHT22;22094;52.130;5.598;2024-01-25T02:41:54;4.60;1.00
23717;DHT22;22094;52.130;5.598;2024-01-25T02:44:20;4.70;1.00
23717;DHT22;22094;52.130;5.598;2024-01-25T02:46:45;4.70;1.00
23717;DHT22;22094;52.130;5.598;2024-01-25T02:49:12;4.70;1.00
23717;DHT22;22094;52.130;5.598;2024-01-25T02:51:37;4.60;1.00
23717;DHT22;22094;52.130;5.598;2024-01-25T02:54:03;4.60;1.00
23717;DHT22;22094;52.130;5.598;2024-01-25T02:56:28;4.50;1.00
23717;DHT22;22094;52.130;5.598;2024-01-25T02:59:00;4.60;1.00
23717;DHT22;22094;52.130;5.598;2024-01-25T03:01:26;4.60;1.00
23717;DHT22;22094;52.130;5.598;2024-01-25T03:03:51;4.60;1.00
23717;DHT22;22094;52.130;5.598;2024-01-25T03:06:17;4.60;1.00
23717;DHT22;22094;52.130;5.598;2024-01-25T03:08:42;4.60;1.00
23717;DHT22;22094;52.130;5.598;2024-01-25T03:11:08;4.50;1.00
23717;DHT22;22094;52.130;5.598;2024-01-25T03:13:34;4.40;1.00
23717;DHT22;22094;52.130;5.598;2024-01-25T03:15:59;4.40;1.00
23717;DHT22;22094;52.130;5.598;2024-01-25T03:18:25;4.40;1.00
23717;DHT22;22094;52.130;5.598;2024-01-25T03:20:51;4.30;1.00
23717;DHT22;22094;52.130;5.598;2024-01-25T03:23:16;4.30;1.00
23717;DHT22;22094;52.130;5.598;2024-01-25T03:25:42;4.30;1.00
23717;DHT22;22094;52.130;5.598;2024-01-25T03:28:08;4.20;1.00
23717;DHT22;22094;52.130;5.598;2024-01-25T03:30:34;4.20;1.00
23717;DHT22;22094;52.130;5.598;2024-01-25T03:33:00;4.10;1.00
23717;DHT22;22094;52.130;5.598;2024-01-25T03:35:26;4.10;1.00
23717;DHT22;22094;52.130;5.598;2024-01-25T03:37:51;4.10;9.70
23717;DHT22;22094;52.130;5.598;2024-01-25T03:40:17;4.10;5.90
23717;DHT22;22094;52.130;5.598;2024-01-25T03:42:42;4.10;4.10
23717;DHT22;22094;52.130;5.598;2024-01-25T03:45:08;4.50;8.60
23717;DHT22;22094;52.130;5.598;2024-01-25T03:47:34;4.10;30.60
23717;DHT22;22094;52.130;5.598;2024-01-25T03:49:59;4.10;42.60
23717;DHT22;22094;52.130;5.598;2024-01-25T03:52:25;4.10;34.50
23717;DHT22;22094;52.130;5.598;2024-01-25T03:54:52;4.00;18.00
23717;DHT22;22094;52.130;5.598;2024-01-25T03:57:17;4.00;23.90
23717;DHT22;22094;52.130;5.598;2024-01-25T03:59:43;4.00;26.90
23717;DHT22;22094;52.130;5.598;2024-01-25T04:02:08;4.00;37.60
23717;DHT22;22094;52.130;5.598;2024-01-25T04:04:35;4.10;51.00
23717;DHT22;22094;52.130;5.598;2024-01-25T04:07:01;4.10;39.00
23717;DHT22;22094;52.130;5.598;2024-01-25T04:09:26;4.00;30.50
23717;DHT22;22094;52.130;5.598;2024-01-25T04:11:52;4.00;46.50
23717;DHT22;22094;52.130;5.598;2024-01-25T04:14:18;4.00;49.70
23717;DHT22;22094;52.130;5.598;2024-01-25T04:16:43;3.90;30.10
23717;DHT22;22094;52.130;5.598;2024-01-25T04:19:11;4.00;55.30
23717;DHT22;22094;52.130;5.598;2024-01-25T04:21:38;4.00;64.50
23717;DHT22;22094;52.130;5.598;2024-01-25T04:24:04;4.00;65.60
23717;DHT22;22094;52.130;5.598;2024-01-25T04:26:29;4.00;66.40
23717;DHT22;22094;52.130;5.598;2024-01-25T04:28:55;3.90;59.90
23717;DHT22;22094;52.130;5.598;2024-01-25T04:31:20;4.60;41.90
23717;DHT22;22094;52.130;5.598;2024-01-25T04:33:46;3.60;36.60
23717;DHT22;22094;52.130;5.598;2024-01-25T04:36:12;3.60;49.10
23717;DHT22;22094;52.130;5.598;2024-01-25T04:38:37;3.70;66.50
23717;DHT22;22094;52.130;5.598;2024-01-25T04:41:04;3.60;65.90
23717;DHT22;22094;52.130;5.598;2024-01-25T04:43:34;3.60;59.50
23717;DHT22;22094;52.130;5.598;2024-01-25T04:46:00;4.40;70.30
23717;DHT22;22094;52.130;5.598;2024-01-25T04:48:26;3.40;59.20
23717;DHT22;22094;52.130;5.598;2024-01-25T04:50:51;3.30;55.60
23717;DHT22;22094;52.130;5.598;2024-01-25T04:53:17;3.80;68.70
23717;DHT22;22094;52.130;5.598;2024-01-25T04:55:43;3.30;91.90
23717;DHT22;22094;52.130;5.598;2024-01-25T04:58:08;3.30;91.10
23717;DHT22;22094;52.130;5.598;2024-01-25T05:00:34;3.30;93.90
23717;DHT22;22094;52.130;5.598;2024-01-25T05:03:01;3.30;99.90
23717;DHT22;22094;52.130;5.598;2024-01-25T05:05:26;3.40;99.90
23717;DHT22;22094;52.130;5.598;2024-01-25T05:07:52;3.50;99.90
23717;DHT22;22094;52.130;5.598;2024-01-25T05:10:17;3.50;99.90
23717;DHT22;22094;52.130;5.598;2024-01-25T05:12:43;3.50;99.90
23717;DHT22;22094;52.130;5.598;2024-01-25T05:15:09;3.40;99.90
23717;DHT22;22094;52.130;5.598;2024-01-25T05:17:35;3.40;99.90
23717;DHT22;22094;52.130;5.598;2024-01-25T05:20:00;3.40;99.90
23717;DHT22;22094;52.130;5.598;2024-01-25T05:22:26;3.30;99.90
23717;DHT22;22094;52.130;5.598;2024-01-25T05:24:51;3.40;99.90
23717;DHT22;22094;52.130;5.598;2024-01-25T05:27:17;3.40;99.90
23717;DHT22;22094;52.130;5.598;2024-01-25T05:29:42;3.40;99.90
23717;DHT22;22094;52.130;5.598;2024-01-25T05:32:08;3.40;99.90
23717;DHT22;22094;52.130;5.598;2024-01-25T05:34:34;3.50;99.90
23717;DHT22;22094;52.130;5.598;2024-01-25T05:36:59;3.40;99.90
23717;DHT22;22094;52.130;5.598;2024-01-25T05:39:25;3.40;99.90
23717;DHT22;22094;52.130;5.598;2024-01-25T05:41:50;3.30;99.90
23717;DHT22;22094;52.130;5.598;2024-01-25T05:44:16;3.30;99.90
23717;DHT22;22094;52.130;5.598;2024-01-25T05:46:41;3.40;99.90
23717;DHT22;22094;52.130;5.598;2024-01-25T05:49:07;3.40;99.90
23717;DHT22;22094;52.130;5.598;2024-01-25T05:51:32;3.50;99.90
23717;DHT22;22094;52.130;5.598;2024-01-25T05:53:58;3.40;99.90
23717;DHT22;22094;52.130;5.598;2024-01-25T05:56:23;3.30;99.90
23717;DHT22;22094;52.130;5.598;2024-01-25T05:58:50;3.20;99.90
23717;DHT22;22094;52.130;5.598;2024-01-25T06:01:16;3.10;99.90
23717;DHT22;22094;52.130;5.598;2024-01-25T06:03:41;3.00;99.90
23717;DHT22;22094;52.130;5.598;2024-01-25T06:06:07;3.00;99.90
23717;DHT22;22094;52.130;5.598;2024-01-25T06:08:35;3.10;99.90
23717;DHT22;22094;52.130;5.598;2024-01-25T06:11:01;3.20;99.90
23717;DHT22;22094;52.130;5.598;2024-01-25T06:13:26;3.20;99.90
23717;DHT22;22094;52.130;5.598;2024-01-25T06:15:52;3.30;99.90
23717;DHT22;22094;52.130;5.598;2024-01-25T06:18:18;3.20;99.90
23717;DHT22;22094;52.130;5.598;2024-01-25T06:20:43;3.10;99.90
23717;DHT22;22094;52.130;5.598;2024-01-25T06:23:09;3.10;99.90
23717;DHT22;22094;52.130;5.598;2024-01-25T06:25:35;3.00;99.90
23717;DHT22;22094;52.130;5.598;2024-01-25T06:28:01;3.00;99.90
23717;DHT22;22094;52.130;5.598;2024-01-25T06:30:27;3.00;99.90
23717;DHT22;22094;52.130;5.598;2024-01-25T06:32:53;3.00;99.90
23717;DHT22;22094;52.130;5.598;2024-01-25T06:35:18;3.00;99.90
23717;DHT22;22094;52.130;5.598;2024-01-25T06:37:44;2.90;99.90
23717;DHT22;22094;52.130;5.598;2024-01-25T06:40:10;2.80;99.90
23717;DHT22;22094;52.130;5.598;2024-01-25T06:42:35;2.90;99.90
23717;DHT22;22094;52.130;5.598;2024-01-25T06:45:01;3.00;99.90
23717;DHT22;22094;52.130;5.598;2024-01-25T06:47:26;3.00;99.90
23717;DHT22;22094;52.130;5.598;2024-01-25T06:49:52;2.90;99.90
23717;DHT22;22094;52.130;5.598;2024-01-25T06:52:18;2.90;99.90
23717;DHT22;22094;52.130;5.598;2024-01-25T06:54:44;2.80;99.90
23717;DHT22;22094;52.130;5.598;2024-01-25T06:57:10;2.90;99.90
23717;DHT22;22094;52.130;5.598;2024-01-25T06:59:35;2.80;99.90
23717;DHT22;22094;52.130;5.598;2024-01-25T07:02:01;2.70;99.90
23717;DHT22;22094;52.130;5.598;2024-01-25T07:04:28;2.80;99.90
23717;DHT22;22094;52.130;5.598;2024-01-25T07:06:54;2.80;99.90
23717;DHT22;22094;52.130;5.598;2024-01-25T07:09:20;2.70;99.90
23717;DHT22;22094;52.130;5.598;2024-01-25T07:11:46;2.70;99.90
23717;DHT22;22094;52.130;5.598;2024-01-25T07:14:11;2.60;99.90
23717;DHT22;22094;52.130;5.598;2024-01-25T07:16:37;2.60;99.90
23717;DHT22;22094;52.130;5.598;2024-01-25T07:19:03;2.70;99.90
23717;DHT22;22094;52.130;5.598;2024-01-25T07:21:28;2.80;99.90
23717;DHT22;22094;52.130;5.598;2024-01-25T07:24:01;2.80;99.90
23717;DHT22;22094;52.130;5.598;2024-01-25T07:26:27;3.00;99.90
23717;DHT22;22094;52.130;5.598;2024-01-25T07:28:53;3.10;99.90
23717;DHT22;22094;52.130;5.598;2024-01-25T07:31:26;3.10;99.90
23717;DHT22;22094;52.130;5.598;2024-01-25T07:33:52;3.10;99.90
23717;DHT22;22094;52.130;5.598;2024-01-25T07:36:18;3.00;99.90
23717;DHT22;22094;52.130;5.598;2024-01-25T07:38:44;3.00;99.90
23717;DHT22;22094;52.130;5.598;2024-01-25T07:41:12;3.10;99.90
23717;DHT22;22094;52.130;5.598;2024-01-25T07:43:38;3.00;99.90
23717;DHT22;22094;52.130;5.598;2024-01-25T07:46:04;3.10;99.90
23717;DHT22;22094;52.130;5.598;2024-01-25T07:48:29;3.10;99.90
23717;DHT22;22094;52.130;5.598;2024-01-25T07:50:55;3.10;99.90
23717;DHT22;22094;52.130;5.598;2024-01-25T07:53:20;3.10;99.90
23717;DHT22;22094;52.130;5.598;2024-01-25T07:55:46;3.10;99.90
23717;DHT22;22094;52.130;5.598;2024-01-25T07:58:11;3.10;99.90
23717;DHT22;22094;52.130;5.598;2024-01-25T08:00:37;3.00;99.90
23717;DHT22;22094;52.130;5.598;2024-01-25T08:03:03;2.90;99.90
23717;DHT22;22094;52.130;5.598;2024-01-25T08:05:29;2.90;99.90
23717;DHT22;22094;52.130;5.598;2024-01-25T08:07:54;2.90;99.90
23717;DHT22;22094;52.130;5.598;2024-01-25T08:10:20;3.00;99.90
23717;DHT22;22094;52.130;5.598;2024-01-25T08:12:45;3.10;99.90
23717;DHT22;22094;52.130;5.598;2024-01-25T08:15:13;3.20;99.90
23717;DHT22;22094;52.130;5.598;2024-01-25T08:17:38;3.30;99.90
23717;DHT22;22094;52.130;5.598;2024-01-25T08:20:04;3.40;99.90
23717;DHT22;22094;52.130;5.598;2024-01-25T08:22:34;3.40;99.90
23717;DHT22;22094;52.130;5.598;2024-01-25T08:24:59;3.40;99.90
23717;DHT22;22094;52.130;5.598;2024-01-25T08:27:25;3.50;99.90
23717;DHT22;22094;52.130;5.598;2024-01-25T08:29:50;3.50;99.90
23717;DHT22;22094;52.130;5.598;2024-01-25T08:32:16;3.50;99.90
23717;DHT22;22094;52.130;5.598;2024-01-25T08:34:42;3.70;99.90
23717;DHT22;22094;52.130;5.598;2024-01-25T08:37:07;3.70;99.90
23717;DHT22;22094;52.130;5.598;2024-01-25T08:39:33;3.70;99.90
23717;DHT22;22094;52.130;5.598;2024-01-25T08:41:58;3.80;99.90
23717;DHT22;22094;52.130;5.598;2024-01-25T08:44:27;3.80;99.90
23717;DHT22;22094;52.130;5.598;2024-01-25T08:46:53;4.00;99.90
23717;DHT22;22094;52.130;5.598;2024-01-25T08:49:18;4.10;99.90
23717;DHT22;22094;52.130;5.598;2024-01-25T08:51:44;4.20;99.90
23717;DHT22;22094;52.130;5.598;2024-01-25T08:54:09;4.30;99.90
23717;DHT22;22094;52.130;5.598;2024-01-25T08:56:35;4.20;99.90
23717;DHT22;22094;52.130;5.598;2024-01-25T08:59:00;4.40;99.90
23717;DHT22;22094;52.130;5.598;2024-01-25T09:01:26;4.40;99.90
23717;DHT22;22094;52.130;5.598;2024-01-25T09:03:52;4.50;99.90
23717;DHT22;22094;52.130;5.598;2024-01-25T09:06:17;4.50;99.90
23717;DHT22;22094;52.130;5.598;2024-01-25T09:08:43;4.50;99.90
23717;DHT22;22094;52.130;5.598;2024-01-25T09:11:09;4.60;99.90
23717;DHT22;22094;52.130;5.598;2024-01-25T09:13:34;4.80;99.90
23717;DHT22;22094;52.130;5.598;2024-01-25T09:16:00;4.70;99.90
23717;DHT22;22094;52.130;5.598;2024-01-25T09:18:25;4.80;99.90
23717;DHT22;22094;52.130;5.598;2024-01-25T09:20:51;4.80;99.90
23717;DHT22;22094;52.130;5.598;2024-01-25T09:23:17;4.90;99.90
23717;DHT22;22094;52.130;5.598;2024-01-25T09:25:44;5.00;99.90
23717;DHT22;22094;52.130;5.598;2024-01-25T09:28:10;5.10;99.90
23717;DHT22;22094;52.130;5.598;2024-01-25T09:30:40;5.10;99.90
23717;DHT22;22094;52.130;5.598;2024-01-25T09:33:06;5.10;99.90
23717;DHT22;22094;52.130;5.598;2024-01-25T09:35:32;5.20;99.90
23717;DHT22;22094;52.130;5.598;2024-01-25T09:37:58;5.30;99.90
23717;DHT22;22094;52.130;5.598;2024-01-25T09:40:23;5.40;99.90
23717;DHT22;22094;52.130;5.598;2024-01-25T09:42:49;5.50;99.90
23717;DHT22;22094;52.130;5.598;2024-01-25T09:45:18;5.60;99.90
23717;DHT22;22094;52.130;5.598;2024-01-25T09:47:45;5.70;99.90
23717;DHT22;22094;52.130;5.598;2024-01-25T09:50:11;5.70;99.90
23717;DHT22;22094;52.130;5.598;2024-01-25T09:52:38;5.70;99.90
23717;DHT22;22094;52.130;5.598;2024-01-25T09:55:06;5.90;99.90
23717;DHT22;22094;52.130;5.598;2024-01-25T09:57:35;6.20;99.90
23717;DHT22;22094;52.130;5.598;2024-01-25T10:00:04;6.20;99.90
23717;DHT22;22094;52.130;5.598;2024-01-25T10:02:30;6.20;99.90
23717;DHT22;22094;52.130;5.598;2024-01-25T10:04:56;6.60;99.90
23717;DHT22;22094;52.130;5.598;2024-01-25T10:07:45;6.20;99.90
23717;DHT22;22094;52.130;5.598;2024-01-25T10:10:11;6.30;99.90
23717;DHT22;22094;52.130;5.598;2024-01-25T10:12:38;6.40;99.90
23717;DHT22;22094;52.130;5.598;2024-01-25T10:15:04;6.50;99.90
23717;DHT22;22094;52.130;5.598;2024-01-25T10:17:31;6.60;93.60
23717;DHT22;22094;52.130;5.598;2024-01-25T10:19:56;6.60;63.70
23717;DHT22;22094;52.130;5.598;2024-01-25T10:22:22;6.60;63.60
23717;DHT22;22094;52.130;5.598;2024-01-25T10:24:48;6.60;38.70
23717;DHT22;22094;52.130;5.598;2024-01-25T10:27:16;6.50;3.50
23717;DHT22;22094;52.130;5.598;2024-01-25T10:29:41;6.50;3.70
23717;DHT22;22094;52.130;5.598;2024-01-25T10:32:08;6.70;1.00
23717;DHT22;22094;52.130;5.598;2024-01-25T10:34:35;6.80;1.00
23717;DHT22;22094;52.130;5.598;2024-01-25T10:37:03;7.00;1.00
23717;DHT22;22094;52.130;5.598;2024-01-25T10:39:30;6.90;1.00
23717;DHT22;22094;52.130;5.598;2024-01-25T10:41:58;6.90;1.00
23717;DHT22;22094;52.130;5.598;2024-01-25T10:44:24;7.00;1.00
23717;DHT22;22094;52.130;5.598;2024-01-25T10:46:49;7.20;1.00
23717;DHT22;22094;52.130;5.598;2024-01-25T10:49:17;7.10;1.00
23717;DHT22;22094;52.130;5.598;2024-01-25T10:51:44;7.30;1.00
23717;DHT22;22094;52.130;5.598;2024-01-25T10:54:10;7.30;1.00
23717;DHT22;22094;52.130;5.598;2024-01-25T10:56:37;7.40;1.00
23717;DHT22;22094;52.130;5.598;2024-01-25T10:59:03;7.40;1.00
23717;DHT22;22094;52.130;5.598;2024-01-25T11:01:29;10.70;1.00
23717;DHT22;22094;52.130;5.598;2024-01-25T11:03:55;7.50;1.00
23717;DHT22;22094;52.130;5.598;2024-01-25T11:06:21;7.50;99.90
23717;DHT22;22094;52.130;5.598;2024-01-25T11:08:48;7.60;99.90
23717;DHT22;22094;52.130;5.598;2024-01-25T11:11:14;7.80;1.00
23717;DHT22;22094;52.130;5.598;2024-01-25T11:13:42;7.90;1.00
23717;DHT22;22094;52.130;5.598;2024-01-25T11:18:50;7.70;27.90
23717;DHT22;22094;52.130;5.598;2024-01-25T11:21:27;7.90;1.00
23717;DHT22;22094;52.130;5.598;2024-01-25T11:24:03;7.80;99.90
23717;DHT22;22094;52.130;5.598;2024-01-25T11:26:29;5.60;99.90
23717;DHT22;22094;52.130;5.598;2024-01-25T11:28:55;9.00;99.90
23717;DHT22;22094;52.130;5.598;2024-01-25T11:31:22;8.20;1.00
23717;DHT22;22094;52.130;5.598;2024-01-25T11:33:49;8.30;1.00
23717;DHT22;22094;52.130;5.598;2024-01-25T11:36:15;8.20;1.00
23717;DHT22;22094;52.130;5.598;2024-01-25T11:38:41;8.30;99.90
23717;DHT22;22094;52.130;5.598;2024-01-25T11:41:07;9.80;99.90
23717;DHT22;22094;52.130;5.598;2024-01-25T11:43:32;8.50;1.00
23717;DHT22;22094;52.130;5.598;2024-01-25T11:45:58;8.50;1.00
23717;DHT22;22094;52.130;5.598;2024-01-25T11:48:27;8.40;99.90
23717;DHT22;22094;52.130;5.598;2024-01-25T11:50:52;6.50;1.00
23717;DHT22;22094;52.130;5.598;2024-01-25T12:00:36;7.80;99.90
23717;DHT22;22094;52.130;5.598;2024-01-25T12:03:02;8.70;1.00
23717;DHT22;22094;52.130;5.598;2024-01-25T12:05:28;6.20;1.00
23717;DHT22;22094;52.130;5.598;2024-01-25T12:07:54;8.60;99.90
23717;DHT22;22094;52.130;5.598;2024-01-25T12:10:19;8.90;99.90
23717;DHT22;22094;52.130;5.598;2024-01-25T12:12:45;8.80;1.00
23717;DHT22;22094;52.130;5.598;2024-01-25T12:15:11;12.20;1.00
23717;DHT22;22094;52.130;5.598;2024-01-25T12:17:36;8.70;1.00
23717;DHT22;22094;52.130;5.598;2024-01-25T12:20:04;8.60;1.00
23717;DHT22;22094;52.130;5.598;2024-01-25T12:22:33;11.80;1.00
23717;DHT22;22094;52.130;5.598;2024-01-25T12:24:59;6.50;1.00
23717;DHT22;22094;52.130;5.598;2024-01-25T12:27:25;5.70;99.90
23717;DHT22;22094;52.130;5.598;2024-01-25T12:29:52;11.70;99.90
23717;DHT22;22094;52.130;5.598;2024-01-25T12:32:21;8.90;99.90
23717;DHT22;22094;52.130;5.598;2024-01-25T12:35:01;8.60;1.00
23717;DHT22;22094;52.130;5.598;2024-01-25T12:37:27;8.50;1.00
23717;DHT22;22094;52.130;5.598;2024-01-25T12:39:53;8.70;1.00
23717;DHT22;22094;52.130;5.598;2024-01-25T12:42:20;9.00;1.00
23717;DHT22;22094;52.130;5.598;2024-01-25T12:44:46;6.30;1.00
23717;DHT22;22094;52.130;5.598;2024-01-25T12:47:12;6.50;1.00
23717;DHT22;22094;52.130;5.598;2024-01-25T12:49:43;9.10;1.00
23717;DHT22;22094;52.130;5.598;2024-01-25T12:52:10;9.30;1.00
23717;DHT22;22094;52.130;5.598;2024-01-25T12:54:36;9.40;1.00
23717;DHT22;22094;52.130;5.598;2024-01-25T12:57:02;9.10;1.00
23717;DHT22;22094;52.130;5.598;2024-01-25T12:59:28;8.50;99.90
23717;DHT22;22094;52.130;5.598;2024-01-25T13:01:54;9.20;99.90
23717;DHT22;22094;52.130;5.598;2024-01-25T13:04:19;9.20;1.00
23717;DHT22;22094;52.130;5.598;2024-01-25T13:06:46;9.30;1.00
23717;DHT22;22094;52.130;5.598;2024-01-25T13:09:12;9.40;1.00
23717;DHT22;22094;52.130;5.598;2024-01-25T13:11:40;9.30;99.90
23717;DHT22;22094;52.130;5.598;2024-01-25T13:14:06;9.60;99.90
23717;DHT22;22094;52.130;5.598;2024-01-25T13:18:57;9.20;1.00
23717;DHT22;22094;52.130;5.598;2024-01-25T13:21:23;9.40;1.00
23717;DHT22;22094;52.130;5.598;2024-01-25T13:23:48;9.00;99.90
23717;DHT22;22094;52.130;5.598;2024-01-25T13:26:14;9.70;99.90
23717;DHT22;22094;52.130;5.598;2024-01-25T13:28:39;9.60;99.90
23717;DHT22;22094;52.130;5.598;2024-01-25T13:31:05;9.50;99.90
23717;DHT22;22094;52.130;5.598;2024-01-25T13:35:56;9.40;99.90
23717;DHT22;22094;52.130;5.598;2024-01-25T13:38:22;9.40;99.90
23717;DHT22;22094;52.130;5.598;2024-01-25T13:40:47;9.40;99.90
23717;DHT22;22094;52.130;5.598;2024-01-25T13:43:13;7.20;1.00
23717;DHT22;22094;52.130;5.598;2024-01-25T13:45:38;9.30;1.00
23717;DHT22;22094;52.130;5.598;2024-01-25T13:48:04;9.10;8.10
23717;DHT22;22094;52.130;5.598;2024-01-25T13:52:56;9.00;99.90
23717;DHT22;22094;52.130;5.598;2024-01-25T13:55:21;9.10;99.90
23717;DHT22;22094;52.130;5.598;2024-01-25T14:00:13;8.70;1.00
23717;DHT22;22094;52.130;5.598;2024-01-25T14:02:40;8.90;1.00
23717;DHT22;22094;52.130;5.598;2024-01-25T14:07:34;9.20;1.00
23717;DHT22;22094;52.130;5.598;2024-01-25T14:09:59;8.90;24.10
23717;DHT22;22094;52.130;5.598;2024-01-25T14:22:08;8.90;99.90
23717;DHT22;22094;52.130;5.598;2024-01-25T14:24:34;8.90;99.90
23717;DHT22;22094;52.130;5.598;2024-01-25T14:26:59;8.90;1.00
23717;DHT22;22094;52.130;5.598;2024-01-25T14:29:28;8.80;1.00
23717;DHT22;22094;52.130;5.598;2024-01-25T14:31:57;8.80;1.00
23717;DHT22;22094;52.130;5.598;2024-01-25T14:34:23;8.70;1.00
23717;DHT22;22094;52.130;5.598;2024-01-25T14:36:48;8.70;1.00
23717;DHT22;22094;52.130;5.598;2024-01-25T14:39:15;8.70;1.00
23717;DHT22;22094;52.130;5.598;2024-01-25T14:41:43;8.70;1.00
23717;DHT22;22094;52.130;5.598;2024-01-25T14:44:09;11.60;1.00
23717;DHT22;22094;52.130;5.598;2024-01-25T14:46:35;8.70;1.00
23717;DHT22;22094;52.130;5.598;2024-01-25T14:49:01;8.80;1.00
23717;DHT22;22094;52.130;5.598;2024-01-25T14:51:26;8.70;15.00
23717;DHT22;22094;52.130;5.598;2024-01-25T14:53:52;8.60;1.00
23717;DHT22;22094;52.130;5.598;2024-01-25T14:56:18;8.60;1.00
23717;DHT22;22094;52.130;5.598;2024-01-25T14:58:43;8.70;1.00
23717;DHT22;22094;52.130;5.598;2024-01-25T15:01:13;8.60;1.00
23717;DHT22;22094;52.130;5.598;2024-01-25T15:03:39;8.70;1.00
23717;DHT22;22094;52.130;5.598;2024-01-25T15:06:05;8.60;1.00
23717;DHT22;22094;52.130;5.598;2024-01-25T15:08:30;8.50;1.00
23717;DHT22;22094;52.130;5.598;2024-01-25T15:10:56;8.50;99.90
23717;DHT22;22094;52.130;5.598;2024-01-25T15:13:21;8.40;1.00
23717;DHT22;22094;52.130;5.598;2024-01-25T15:15:47;8.30;1.00
23717;DHT22;22094;52.130;5.598;2024-01-25T15:18:13;8.30;99.90
23717;DHT22;22094;52.130;5.598;2024-01-25T15:20:38;8.30;1.00
23717;DHT22;22094;52.130;5.598;2024-01-25T15:23:04;8.20;1.00
23717;DHT22;22094;52.130;5.598;2024-01-25T15:25:29;8.20;99.90
23717;DHT22;22094;52.130;5.598;2024-01-25T15:27:55;8.50;1.00
23717;DHT22;22094;52.130;5.598;2024-01-25T15:30:21;8.70;1.00
23717;DHT22;22094;52.130;5.598;2024-01-25T15:32:46;8.00;1.00
23717;DHT22;22094;52.130;5.598;2024-01-25T15:35:13;8.00;1.00
23717;DHT22;22094;52.130;5.598;2024-01-25T15:37:38;8.70;1.00
23717;DHT22;22094;52.130;5.598;2024-01-25T15:40:07;8.20;1.00
23717;DHT22;22094;52.130;5.598;2024-01-25T15:42:36;7.90;1.00
23717;DHT22;22094;52.130;5.598;2024-01-25T15:45:03;8.00;1.00
23717;DHT22;22094;52.130;5.598;2024-01-25T15:47:29;7.90;1.00
23717;DHT22;22094;52.130;5.598;2024-01-25T15:49:55;7.80;1.00
23717;DHT22;22094;52.130;5.598;2024-01-25T15:52:20;7.80;1.00
23717;DHT22;22094;52.130;5.598;2024-01-25T15:54:47;7.80;1.00
23717;DHT22;22094;52.130;5.598;2024-01-25T15:57:12;7.80;1.00
23717;DHT22;22094;52.130;5.598;2024-01-25T15:59:38;7.80;1.00
23717;DHT22;22094;52.130;5.598;2024-01-25T16:02:03;7.70;1.00
23717;DHT22;22094;52.130;5.598;2024-01-25T16:04:30;8.30;1.00
23717;DHT22;22094;52.130;5.598;2024-01-25T16:06:55;7.80;1.00
23717;DHT22;22094;52.130;5.598;2024-01-25T16:09:21;7.80;1.00
23717;DHT22;22094;52.130;5.598;2024-01-25T16:11:47;7.80;1.00
23717;DHT22;22094;52.130;5.598;2024-01-25T16:14:12;7.80;1.00
23717;DHT22;22094;52.130;5.598;2024-01-25T16:16:38;7.80;1.00